sensor_id;sensor_type;location;lat;lon;timestamp;pressure;altitude;pressure_sealevel;temperature;humidity
56713;BME280;42589;45.536;9.032;2022-10-17T00:02:26;100757.53;;;23.15;51.32
56713;BME280;42589;45.536;9.032;2022-10-17T00:05:27;100759.63;;;23.20;50.49
56713;BME280;42589;45.536;9.032;2022-10-17T00:08:30;100767.97;;;22.85;50.82
56713;BME280;42589;45.536;9.032;2022-10-17T00:11:31;100763.38;;;22.99;51.00
56713;BME280;42589;45.536;9.032;2022-10-17T00:14:32;100769.66;;;23.06;51.73
56713;BME280;42589;45.536;9.032;2022-10-17T00:17:32;100769.00;;;23.10;50.97
56713;BME280;42589;45.536;9.032;2022-10-17T00:20:34;100772.38;;;23.06;51.30
56713;BME280;42589;45.536;9.032;2022-10-17T00:23:34;100778.84;;;22.98;50.73
56713;BME280;42589;45.536;9.032;2022-10-17T00:26:35;100774.88;;;23.01;50.56
56713;BME280;42589;45.536;9.032;2022-10-17T00:29:35;100776.94;;;23.12;50.63
56713;BME280;42589;45.536;9.032;2022-10-17T00:32:36;100790.06;;;22.88;51.53
56713;BME280;42589;45.536;9.032;2022-10-17T00:35:37;100793.63;;;23.02;50.78
56713;BME280;42589;45.536;9.032;2022-10-17T00:38:41;100794.47;;;23.09;50.55
56713;BME280;42589;45.536;9.032;2022-10-17T00:41:42;100797.75;;;23.25;50.18
56713;BME280;42589;45.536;9.032;2022-10-17T00:47:47;100798.22;;;23.22;50.63
56713;BME280;42589;45.536;9.032;2022-10-17T00:50:51;100804.22;;;23.30;50.25
56713;BME280;42589;45.536;9.032;2022-10-17T00:53:51;100813.03;;;23.19;50.32
56713;BME280;42589;45.536;9.032;2022-10-17T00:56:52;100806.75;;;23.12;50.50
56713;BME280;42589;45.536;9.032;2022-10-17T00:59:54;100808.44;;;23.06;50.77
56713;BME280;42589;45.536;9.032;2022-10-17T01:02:56;100807.00;;;22.97;51.09
56713;BME280;42589;45.536;9.032;2022-10-17T01:05:56;100809.47;;;23.05;50.86
56713;BME280;42589;45.536;9.032;2022-10-17T01:08:57;100809.47;;;23.05;50.80
56713;BME280;42589;45.536;9.032;2022-10-17T01:18:02;100810.09;;;23.07;50.47
56713;BME280;42589;45.536;9.032;2022-10-17T01:33:48;100805.09;;;23.11;50.36
56713;BME280;42589;45.536;9.032;2022-10-17T01:36:55;100806.59;;;22.93;50.83
56713;BME280;42589;45.536;9.032;2022-10-17T01:46:13;100797.38;;;22.75;51.49
56713;BME280;42589;45.536;9.032;2022-10-17T01:49:16;100787.38;;;22.68;51.33
56713;BME280;42589;45.536;9.032;2022-10-17T01:52:19;100790.31;;;22.93;50.92
56713;BME280;42589;45.536;9.032;2022-10-17T01:55:27;100778.41;;;22.88;50.91
56713;BME280;42589;45.536;9.032;2022-10-17T01:58:31;100776.53;;;22.95;50.55
56713;BME280;42589;45.536;9.032;2022-10-17T02:01:36;100780.69;;;22.84;50.60
56713;BME280;42589;45.536;9.032;2022-10-17T02:04:37;100775.47;;;22.89;50.75
56713;BME280;42589;45.536;9.032;2022-10-17T02:07:39;100779.00;;;22.83;50.61
56713;BME280;42589;45.536;9.032;2022-10-17T02:17:38;100785.91;;;22.53;50.85
56713;BME280;42589;45.536;9.032;2022-10-17T02:20:29;100782.13;;;22.47;51.95
56713;BME280;42589;45.536;9.032;2022-10-17T02:26:43;100789.63;;;22.45;51.29
56713;BME280;42589;45.536;9.032;2022-10-17T02:29:47;100797.34;;;22.55;51.48
56713;BME280;42589;45.536;9.032;2022-10-17T02:32:57;100795.91;;;22.65;50.93
56713;BME280;42589;45.536;9.032;2022-10-17T02:35:59;100795.03;;;22.52;51.14
56713;BME280;42589;45.536;9.032;2022-10-17T02:39:02;100789.66;;;22.58;50.98
56713;BME280;42589;45.536;9.032;2022-10-17T02:42:04;100796.50;;;22.54;51.12
56713;BME280;42589;45.536;9.032;2022-10-17T02:45:08;100791.91;;;22.41;51.95
56713;BME280;42589;45.536;9.032;2022-10-17T02:51:55;100795.25;;;22.43;51.14
56713;BME280;42589;45.536;9.032;2022-10-17T02:54:58;100810.28;;;22.53;51.31
56713;BME280;42589;45.536;9.032;2022-10-17T02:58:05;100798.41;;;22.60;51.13
56713;BME280;42589;45.536;9.032;2022-10-17T03:01:07;100808.97;;;22.29;51.60
56713;BME280;42589;45.536;9.032;2022-10-17T03:04:12;100807.09;;;22.36;51.78
56713;BME280;42589;45.536;9.032;2022-10-17T03:07:12;100801.19;;;22.12;52.24
56713;BME280;42589;45.536;9.032;2022-10-17T03:10:13;100809.38;;;22.32;51.55
56713;BME280;42589;45.536;9.032;2022-10-17T03:13:14;100807.94;;;22.30;52.08
56713;BME280;42589;45.536;9.032;2022-10-17T03:16:14;100817.75;;;22.44;51.48
56713;BME280;42589;45.536;9.032;2022-10-17T03:19:15;100820.69;;;22.42;51.65
56713;BME280;42589;45.536;9.032;2022-10-17T03:22:16;100826.94;;;22.36;52.05
56713;BME280;42589;45.536;9.032;2022-10-17T03:25:23;100823.16;;;22.31;51.24
56713;BME280;42589;45.536;9.032;2022-10-17T03:28:23;100820.22;;;22.32;51.82
56713;BME280;42589;45.536;9.032;2022-10-17T03:31:23;100829.44;;;22.44;51.34
56713;BME280;42589;45.536;9.032;2022-10-17T03:34:23;100824.00;;;22.44;50.77
56713;BME280;42589;45.536;9.032;2022-10-17T03:37:24;100820.44;;;22.24;52.14
56713;BME280;42589;45.536;9.032;2022-10-17T03:40:25;100826.88;;;22.23;52.29
56713;BME280;42589;45.536;9.032;2022-10-17T03:43:26;100833.59;;;22.34;51.59
56713;BME280;42589;45.536;9.032;2022-10-17T03:46:26;100827.75;;;22.37;51.46
56713;BME280;42589;45.536;9.032;2022-10-17T03:49:26;100830.63;;;22.29;51.58
56713;BME280;42589;45.536;9.032;2022-10-17T03:52:27;100832.31;;;22.30;52.53
56713;BME280;42589;45.536;9.032;2022-10-17T03:55:28;100833.34;;;22.29;51.60
56713;BME280;42589;45.536;9.032;2022-10-17T03:58:29;100827.03;;;22.15;51.47
56713;BME280;42589;45.536;9.032;2022-10-17T04:01:29;100836.41;;;21.71;52.50
56713;BME280;42589;45.536;9.032;2022-10-17T04:04:32;100841.22;;;21.75;53.76
56713;BME280;42589;45.536;9.032;2022-10-17T04:07:33;100837.31;;;21.85;52.98
56713;BME280;42589;45.536;9.032;2022-10-17T04:10:36;100843.47;;;22.13;52.62
56713;BME280;42589;45.536;9.032;2022-10-17T04:13:36;100849.28;;;22.10;52.05
56713;BME280;42589;45.536;9.032;2022-10-17T04:16:37;100849.25;;;21.97;51.88
56713;BME280;42589;45.536;9.032;2022-10-17T04:19:38;100852.09;;;22.23;52.44
56713;BME280;42589;45.536;9.032;2022-10-17T04:22:38;100850.97;;;22.11;52.42
56713;BME280;42589;45.536;9.032;2022-10-17T04:25:39;100850.56;;;22.14;51.48
56713;BME280;42589;45.536;9.032;2022-10-17T04:28:39;100862.53;;;22.27;51.52
56713;BME280;42589;45.536;9.032;2022-10-17T04:31:40;100864.47;;;21.98;51.98
56713;BME280;42589;45.536;9.032;2022-10-17T04:34:40;100867.78;;;22.00;51.39
56713;BME280;42589;45.536;9.032;2022-10-17T04:37:41;100867.09;;;21.85;52.67
56713;BME280;42589;45.536;9.032;2022-10-17T04:40:41;100869.22;;;21.96;52.19
56713;BME280;42589;45.536;9.032;2022-10-17T04:43:42;100870.81;;;22.18;52.13
56713;BME280;42589;45.536;9.032;2022-10-17T04:46:43;100871.00;;;22.17;52.03
56713;BME280;42589;45.536;9.032;2022-10-17T04:49:43;100876.88;;;22.20;51.58
56713;BME280;42589;45.536;9.032;2022-10-17T04:52:44;100884.66;;;21.95;51.92
56713;BME280;42589;45.536;9.032;2022-10-17T04:55:45;100877.81;;;22.06;51.61
56713;BME280;42589;45.536;9.032;2022-10-17T04:58:45;100886.75;;;22.00;51.88
56713;BME280;42589;45.536;9.032;2022-10-17T05:01:47;100880.09;;;22.02;51.95
56713;BME280;42589;45.536;9.032;2022-10-17T05:04:48;100886.97;;;22.05;52.43
56713;BME280;42589;45.536;9.032;2022-10-17T05:07:49;100894.38;;;22.24;51.69
56713;BME280;42589;45.536;9.032;2022-10-17T05:10:53;100889.91;;;22.10;51.35
56713;BME280;42589;45.536;9.032;2022-10-17T05:13:57;100896.94;;;21.98;51.78
56713;BME280;42589;45.536;9.032;2022-10-17T05:16:58;100902.00;;;22.08;51.78
56713;BME280;42589;45.536;9.032;2022-10-17T05:19:59;100899.47;;;22.06;51.49
56713;BME280;42589;45.536;9.032;2022-10-17T05:23:00;100901.31;;;21.99;51.63
56713;BME280;42589;45.536;9.032;2022-10-17T05:26:04;100903.63;;;22.02;51.99
56713;BME280;42589;45.536;9.032;2022-10-17T05:29:05;100906.53;;;22.07;51.71
56713;BME280;42589;45.536;9.032;2022-10-17T05:32:05;100902.00;;;22.08;51.79
56713;BME280;42589;45.536;9.032;2022-10-17T05:35:06;100907.59;;;22.06;51.62
56713;BME280;42589;45.536;9.032;2022-10-17T05:38:07;100907.00;;;22.11;51.58
56713;BME280;42589;45.536;9.032;2022-10-17T05:41:08;100908.25;;;22.08;51.95
56713;BME280;42589;45.536;9.032;2022-10-17T05:44:09;100905.53;;;22.08;51.53
56713;BME280;42589;45.536;9.032;2022-10-17T05:47:10;100912.22;;;22.12;51.89
56713;BME280;42589;45.536;9.032;2022-10-17T05:50:11;100914.81;;;21.92;52.36
56713;BME280;42589;45.536;9.032;2022-10-17T05:53:17;100917.75;;;21.97;51.82
56713;BME280;42589;45.536;9.032;2022-10-17T05:56:17;100918.59;;;21.98;52.03
56713;BME280;42589;45.536;9.032;2022-10-17T05:59:19;100910.50;;;22.05;51.65
56713;BME280;42589;45.536;9.032;2022-10-17T06:02:20;100915.16;;;21.48;53.01
56713;BME280;42589;45.536;9.032;2022-10-17T06:05:20;100918.81;;;22.03;52.02
56713;BME280;42589;45.536;9.032;2022-10-17T06:08:21;100932.69;;;22.21;51.29
56713;BME280;42589;45.536;9.032;2022-10-17T06:11:21;100933.13;;;22.25;51.14
56713;BME280;42589;45.536;9.032;2022-10-17T06:14:22;100941.50;;;22.30;51.37
56713;BME280;42589;45.536;9.032;2022-10-17T06:17:22;100943.41;;;22.36;50.90
56713;BME280;42589;45.536;9.032;2022-10-17T06:20:23;100949.03;;;22.41;51.45
56713;BME280;42589;45.536;9.032;2022-10-17T06:23:24;100956.97;;;22.43;51.85
56713;BME280;42589;45.536;9.032;2022-10-17T06:26:26;100958.28;;;22.60;50.75
56713;BME280;42589;45.536;9.032;2022-10-17T06:29:27;100960.97;;;22.60;50.34
56713;BME280;42589;45.536;9.032;2022-10-17T06:32:28;100964.44;;;22.41;50.45
56713;BME280;42589;45.536;9.032;2022-10-17T06:35:28;100963.56;;;22.27;51.55
56713;BME280;42589;45.536;9.032;2022-10-17T06:38:29;100973.44;;;22.55;50.75
56713;BME280;42589;45.536;9.032;2022-10-17T06:41:29;100973.66;;;22.53;51.29
56713;BME280;42589;45.536;9.032;2022-10-17T06:44:30;100979.97;;;22.74;50.33
56713;BME280;42589;45.536;9.032;2022-10-17T06:47:30;100970.88;;;22.88;50.10
56713;BME280;42589;45.536;9.032;2022-10-17T06:50:31;100985.22;;;22.75;50.23
56713;BME280;42589;45.536;9.032;2022-10-17T06:53:32;100984.81;;;22.78;50.66
56713;BME280;42589;45.536;9.032;2022-10-17T06:56:33;100990.91;;;22.87;50.10
56713;BME280;42589;45.536;9.032;2022-10-17T06:59:37;100994.09;;;23.04;50.10
56713;BME280;42589;45.536;9.032;2022-10-17T07:02:37;100993.25;;;23.03;50.43
56713;BME280;42589;45.536;9.032;2022-10-17T07:05:39;100995.75;;;23.11;50.31
56713;BME280;42589;45.536;9.032;2022-10-17T07:08:44;100999.34;;;22.64;50.36
56713;BME280;42589;45.536;9.032;2022-10-17T07:11:44;101001.19;;;23.25;50.08
56713;BME280;42589;45.536;9.032;2022-10-17T07:14:45;100999.34;;;23.58;49.44
56713;BME280;42589;45.536;9.032;2022-10-17T07:17:47;101003.53;;;23.54;48.72
56713;BME280;42589;45.536;9.032;2022-10-17T07:20:52;101010.44;;;23.63;49.08
56713;BME280;42589;45.536;9.032;2022-10-17T07:23:53;101009.56;;;24.03;48.71
56713;BME280;42589;45.536;9.032;2022-10-17T07:26:54;101013.31;;;24.15;48.37
56713;BME280;42589;45.536;9.032;2022-10-17T07:29:55;101023.34;;;24.15;48.63
56713;BME280;42589;45.536;9.032;2022-10-17T07:32:57;101019.84;;;24.01;48.97
56713;BME280;42589;45.536;9.032;2022-10-17T07:35:58;101019.19;;;23.52;49.98
56713;BME280;42589;45.536;9.032;2022-10-17T07:38:59;101020.88;;;23.86;49.42
56713;BME280;42589;45.536;9.032;2022-10-17T07:41:59;101024.19;;;24.08;49.71
56713;BME280;42589;45.536;9.032;2022-10-17T07:45:00;101024.56;;;24.25;48.93
56713;BME280;42589;45.536;9.032;2022-10-17T07:48:00;101024.53;;;24.52;48.12
56713;BME280;42589;45.536;9.032;2022-10-17T07:51:02;101024.31;;;24.53;48.59
56713;BME280;42589;45.536;9.032;2022-10-17T07:54:03;101032.09;;;24.17;49.77
56713;BME280;42589;45.536;9.032;2022-10-17T07:57:04;101032.03;;;24.57;49.01
56713;BME280;42589;45.536;9.032;2022-10-17T08:00:06;101036.97;;;23.95;50.37
56713;BME280;42589;45.536;9.032;2022-10-17T08:03:08;101039.13;;;24.71;49.14
56713;BME280;42589;45.536;9.032;2022-10-17T08:06:10;101041.81;;;24.71;48.14
56713;BME280;42589;45.536;9.032;2022-10-17T08:09:10;101047.34;;;24.96;47.80
56713;BME280;42589;45.536;9.032;2022-10-17T08:12:12;101048.84;;;25.30;46.73
56713;BME280;42589;45.536;9.032;2022-10-17T08:15:14;101047.44;;;25.53;46.46
56713;BME280;42589;45.536;9.032;2022-10-17T08:18:15;101054.72;;;25.59;46.55
56713;BME280;42589;45.536;9.032;2022-10-17T08:21:17;101049.03;;;25.35;47.05
56713;BME280;42589;45.536;9.032;2022-10-17T08:24:17;101044.22;;;25.31;48.00
56713;BME280;42589;45.536;9.032;2022-10-17T08:27:18;101044.34;;;25.74;47.08
56713;BME280;42589;45.536;9.032;2022-10-17T08:30:23;101056.66;;;25.83;46.76
56713;BME280;42589;45.536;9.032;2022-10-17T08:33:24;101053.56;;;25.10;48.20
56713;BME280;42589;45.536;9.032;2022-10-17T08:36:24;101043.28;;;25.82;46.89
56713;BME280;42589;45.536;9.032;2022-10-17T08:39:25;101050.69;;;25.68;47.77
56713;BME280;42589;45.536;9.032;2022-10-17T08:45:46;101056.84;;;25.88;46.31
56713;BME280;42589;45.536;9.032;2022-10-17T08:48:48;101051.81;;;26.10;46.18
56713;BME280;42589;45.536;9.032;2022-10-17T08:51:53;101056.84;;;26.07;46.72
56713;BME280;42589;45.536;9.032;2022-10-17T08:54:55;101052.81;;;26.34;45.14
56713;BME280;42589;45.536;9.032;2022-10-17T08:57:56;101051.88;;;26.22;46.91
56713;BME280;42589;45.536;9.032;2022-10-17T09:01:08;101062.22;;;26.57;45.92
56713;BME280;42589;45.536;9.032;2022-10-17T09:17:29;101060.13;;;26.59;46.55
56713;BME280;42589;45.536;9.032;2022-10-17T09:20:36;101060.84;;;26.84;45.12
56713;BME280;42589;45.536;9.032;2022-10-17T09:23:46;101062.34;;;26.99;44.74
56713;BME280;42589;45.536;9.032;2022-10-17T09:26:47;101057.38;;;26.77;45.79
56713;BME280;42589;45.536;9.032;2022-10-17T09:29:54;101049.50;;;27.18;45.12
56713;BME280;42589;45.536;9.032;2022-10-17T09:33:00;101055.03;;;27.29;44.10
56713;BME280;42589;45.536;9.032;2022-10-17T09:36:03;101061.31;;;27.12;44.81
56713;BME280;42589;45.536;9.032;2022-10-17T09:39:10;101060.47;;;27.29;44.25
56713;BME280;42589;45.536;9.032;2022-10-17T09:42:12;101058.00;;;27.40;43.80
56713;BME280;42589;45.536;9.032;2022-10-17T09:45:21;101058.47;;;27.06;45.24
56713;BME280;42589;45.536;9.032;2022-10-17T09:48:40;101065.38;;;27.09;44.37
56713;BME280;42589;45.536;9.032;2022-10-17T09:51:43;101055.75;;;27.37;43.68
56713;BME280;42589;45.536;9.032;2022-10-17T09:54:45;101060.72;;;27.28;43.50
56713;BME280;42589;45.536;9.032;2022-10-17T09:57:53;101061.38;;;27.65;42.92
56713;BME280;42589;45.536;9.032;2022-10-17T10:00:57;101060.16;;;27.38;43.49
56713;BME280;42589;45.536;9.032;2022-10-17T10:04:14;101066.38;;;27.68;43.24
56713;BME280;42589;45.536;9.032;2022-10-17T10:07:15;101052.19;;;27.36;43.63
56713;BME280;42589;45.536;9.032;2022-10-17T10:10:24;101052.09;;;27.85;43.00
56713;BME280;42589;45.536;9.032;2022-10-17T10:13:25;101057.19;;;28.05;42.77
56713;BME280;42589;45.536;9.032;2022-10-17T10:16:30;101058.91;;;27.64;43.66
56713;BME280;42589;45.536;9.032;2022-10-17T10:19:33;101048.53;;;27.42;44.93
56713;BME280;42589;45.536;9.032;2022-10-17T10:22:33;101052.84;;;27.62;43.65
56713;BME280;42589;45.536;9.032;2022-10-17T10:25:35;101054.91;;;27.78;44.21
56713;BME280;42589;45.536;9.032;2022-10-17T10:28:35;101064.91;;;27.96;44.61
56713;BME280;42589;45.536;9.032;2022-10-17T10:31:37;101065.50;;;28.10;44.00
56713;BME280;42589;45.536;9.032;2022-10-17T10:34:43;101067.28;;;28.16;44.16
56713;BME280;42589;45.536;9.032;2022-10-17T10:37:48;101056.59;;;28.03;44.44
56713;BME280;42589;45.536;9.032;2022-10-17T10:40:56;101060.06;;;27.98;43.80
56713;BME280;42589;45.536;9.032;2022-10-17T10:44:01;101055.16;;;28.23;43.35
56713;BME280;42589;45.536;9.032;2022-10-17T10:47:06;101055.16;;;28.00;43.65
56713;BME280;42589;45.536;9.032;2022-10-17T10:53:34;101049.44;;;28.37;42.74
56713;BME280;42589;45.536;9.032;2022-10-17T10:56:36;101060.09;;;28.74;42.77
56713;BME280;42589;45.536;9.032;2022-10-17T11:02:44;101044.69;;;28.32;43.43
56713;BME280;42589;45.536;9.032;2022-10-17T11:05:59;101048.34;;;27.67;44.45
56713;BME280;42589;45.536;9.032;2022-10-17T11:15:31;101044.00;;;27.90;43.64
56713;BME280;42589;45.536;9.032;2022-10-17T11:18:43;101042.94;;;27.37;45.33
56713;BME280;42589;45.536;9.032;2022-10-17T11:21:46;101038.19;;;28.45;42.55
56713;BME280;42589;45.536;9.032;2022-10-17T11:27:47;101029.59;;;26.99;44.69
56713;BME280;42589;45.536;9.032;2022-10-17T11:30:59;101038.06;;;28.05;42.90
56713;BME280;42589;45.536;9.032;2022-10-17T11:34:09;101031.59;;;28.34;41.08
56713;BME280;42589;45.536;9.032;2022-10-17T11:37:18;101030.09;;;28.79;41.34
56713;BME280;42589;45.536;9.032;2022-10-17T11:40:29;101024.81;;;28.89;40.96
56713;BME280;42589;45.536;9.032;2022-10-17T11:43:34;101021.06;;;28.78;40.91
56713;BME280;42589;45.536;9.032;2022-10-17T11:46:37;101022.88;;;27.85;43.29
56713;BME280;42589;45.536;9.032;2022-10-17T11:49:44;101021.22;;;28.72;41.89
56713;BME280;42589;45.536;9.032;2022-10-17T11:52:59;101023.59;;;29.08;41.88
56713;BME280;42589;45.536;9.032;2022-10-17T11:56:00;101013.03;;;28.88;41.33
56713;BME280;42589;45.536;9.032;2022-10-17T11:59:18;101011.41;;;29.16;40.33
56713;BME280;42589;45.536;9.032;2022-10-17T12:02:36;101007.28;;;28.09;42.28
56713;BME280;42589;45.536;9.032;2022-10-17T12:12:02;100999.13;;;29.52;40.17
56713;BME280;42589;45.536;9.032;2022-10-17T12:18:15;100991.50;;;29.21;40.41
56713;BME280;42589;45.536;9.032;2022-10-17T12:21:16;100989.66;;;29.09;40.26
56713;BME280;42589;45.536;9.032;2022-10-17T12:27:37;100986.53;;;29.51;39.85
56713;BME280;42589;45.536;9.032;2022-10-17T12:31:22;100977.50;;;29.51;39.96
56713;BME280;42589;45.536;9.032;2022-10-17T12:34:03;100978.81;;;29.31;40.60
56713;BME280;42589;45.536;9.032;2022-10-17T12:37:04;100975.59;;;29.34;40.99
56713;BME280;42589;45.536;9.032;2022-10-17T12:49:44;100969.47;;;30.00;38.96
56713;BME280;42589;45.536;9.032;2022-10-17T12:52:52;100957.09;;;29.25;39.88
56713;BME280;42589;45.536;9.032;2022-10-17T12:55:58;100966.69;;;29.27;40.07
56713;BME280;42589;45.536;9.032;2022-10-17T12:58:59;100958.97;;;29.75;39.72
56713;BME280;42589;45.536;9.032;2022-10-17T13:02:00;100962.81;;;29.74;39.81
56713;BME280;42589;45.536;9.032;2022-10-17T13:05:07;100961.38;;;29.88;39.07
56713;BME280;42589;45.536;9.032;2022-10-17T13:08:14;100948.94;;;28.84;40.02
56713;BME280;42589;45.536;9.032;2022-10-17T13:11:21;100951.69;;;29.64;38.72
56713;BME280;42589;45.536;9.032;2022-10-17T13:14:23;100952.00;;;29.17;39.25
56713;BME280;42589;45.536;9.032;2022-10-17T13:17:25;100941.06;;;29.50;38.30
56713;BME280;42589;45.536;9.032;2022-10-17T13:20:28;100942.50;;;29.92;38.48
56713;BME280;42589;45.536;9.032;2022-10-17T13:23:30;100937.88;;;30.14;37.78
56713;BME280;42589;45.536;9.032;2022-10-17T13:26:31;100937.59;;;29.94;37.97
56713;BME280;42589;45.536;9.032;2022-10-17T13:29:32;100943.22;;;28.57;39.61
56713;BME280;42589;45.536;9.032;2022-10-17T13:32:36;100939.34;;;28.01;40.72
56713;BME280;42589;45.536;9.032;2022-10-17T13:35:37;100936.22;;;29.24;39.08
56713;BME280;42589;45.536;9.032;2022-10-17T13:38:38;100927.91;;;29.86;39.15
56713;BME280;42589;45.536;9.032;2022-10-17T13:41:39;100936.31;;;29.79;37.83
56713;BME280;42589;45.536;9.032;2022-10-17T13:44:41;100925.88;;;29.98;37.77
56713;BME280;42589;45.536;9.032;2022-10-17T13:47:41;100924.59;;;29.00;38.29
56713;BME280;42589;45.536;9.032;2022-10-17T13:50:42;100926.81;;;29.87;37.86
56713;BME280;42589;45.536;9.032;2022-10-17T13:53:46;100928.19;;;30.28;37.40
56713;BME280;42589;45.536;9.032;2022-10-17T13:56:47;100924.75;;;30.38;37.39
56713;BME280;42589;45.536;9.032;2022-10-17T14:02:55;100923.03;;;28.58;39.79
56713;BME280;42589;45.536;9.032;2022-10-17T14:05:59;100930.44;;;29.20;39.01
56713;BME280;42589;45.536;9.032;2022-10-17T14:09:15;100923.75;;;29.83;37.62
56713;BME280;42589;45.536;9.032;2022-10-17T14:12:18;100916.69;;;30.10;36.94
56713;BME280;42589;45.536;9.032;2022-10-17T14:15:20;100907.31;;;29.28;37.61
56713;BME280;42589;45.536;9.032;2022-10-17T14:18:32;100913.50;;;29.06;38.13
56713;BME280;42589;45.536;9.032;2022-10-17T14:21:33;100907.50;;;29.60;37.45
56713;BME280;42589;45.536;9.032;2022-10-17T14:24:34;100909.63;;;29.92;36.55
56713;BME280;42589;45.536;9.032;2022-10-17T14:27:35;100903.56;;;30.12;36.37
56713;BME280;42589;45.536;9.032;2022-10-17T14:30:48;100901.13;;;30.15;36.76
56713;BME280;42589;45.536;9.032;2022-10-17T14:33:52;100905.28;;;30.18;36.76
56713;BME280;42589;45.536;9.032;2022-10-17T14:36:52;100906.41;;;30.00;37.79
56713;BME280;42589;45.536;9.032;2022-10-17T14:39:54;100898.16;;;29.95;37.49
56713;BME280;42589;45.536;9.032;2022-10-17T14:42:57;100896.81;;;29.75;37.58
56713;BME280;42589;45.536;9.032;2022-10-17T14:45:59;100899.91;;;29.84;37.69
56713;BME280;42589;45.536;9.032;2022-10-17T14:49:04;100902.53;;;29.96;37.22
56713;BME280;42589;45.536;9.032;2022-10-17T14:55:19;100910.06;;;30.05;36.41
56713;BME280;42589;45.536;9.032;2022-10-17T14:58:25;100895.97;;;30.19;36.32
56713;BME280;42589;45.536;9.032;2022-10-17T15:01:26;100899.31;;;30.21;35.82
56713;BME280;42589;45.536;9.032;2022-10-17T15:04:27;100909.16;;;30.00;36.06
56713;BME280;42589;45.536;9.032;2022-10-17T15:07:28;100896.47;;;29.94;36.42
56713;BME280;42589;45.536;9.032;2022-10-17T15:10:33;100905.13;;;29.64;36.91
56713;BME280;42589;45.536;9.032;2022-10-17T15:13:34;100905.06;;;29.80;36.74
56713;BME280;42589;45.536;9.032;2022-10-17T15:16:34;100908.00;;;29.74;36.94
56713;BME280;42589;45.536;9.032;2022-10-17T15:19:36;100902.88;;;29.60;37.52
56713;BME280;42589;45.536;9.032;2022-10-17T15:22:36;100905.22;;;29.35;38.64
56713;BME280;42589;45.536;9.032;2022-10-17T15:25:36;100905.63;;;29.27;38.28
56713;BME280;42589;45.536;9.032;2022-10-17T15:28:38;100908.44;;;29.32;37.85
56713;BME280;42589;45.536;9.032;2022-10-17T15:31:39;100903.22;;;29.13;38.78
56713;BME280;42589;45.536;9.032;2022-10-17T15:34:40;100896.03;;;28.96;39.39
56713;BME280;42589;45.536;9.032;2022-10-17T15:37:41;100890.34;;;28.80;39.58
56713;BME280;42589;45.536;9.032;2022-10-17T15:40:42;100900.44;;;28.51;40.74
56713;BME280;42589;45.536;9.032;2022-10-17T15:43:42;100905.19;;;28.56;40.57
56713;BME280;42589;45.536;9.032;2022-10-17T15:46:43;100910.22;;;28.47;41.43
56713;BME280;42589;45.536;9.032;2022-10-17T15:49:43;100913.44;;;28.44;40.63
56713;BME280;42589;45.536;9.032;2022-10-17T15:52:44;100909.53;;;28.40;40.81
56713;BME280;42589;45.536;9.032;2022-10-17T15:55:46;100910.38;;;28.29;41.47
56713;BME280;42589;45.536;9.032;2022-10-17T15:58:49;100912.28;;;28.40;41.31
56713;BME280;42589;45.536;9.032;2022-10-17T16:01:50;100908.66;;;28.51;41.04
56713;BME280;42589;45.536;9.032;2022-10-17T16:04:51;100910.56;;;28.51;41.02
56713;BME280;42589;45.536;9.032;2022-10-17T16:07:52;100915.84;;;28.40;41.34
56713;BME280;42589;45.536;9.032;2022-10-17T16:10:52;100919.16;;;28.31;41.29
56713;BME280;42589;45.536;9.032;2022-10-17T16:13:53;100914.81;;;28.18;41.92
56713;BME280;42589;45.536;9.032;2022-10-17T16:16:55;100917.81;;;28.05;42.21
56713;BME280;42589;45.536;9.032;2022-10-17T16:19:55;100919.13;;;28.02;42.26
56713;BME280;42589;45.536;9.032;2022-10-17T16:22:57;100924.84;;;28.00;42.64
56713;BME280;42589;45.536;9.032;2022-10-17T16:25:59;100927.19;;;27.97;42.54
56713;BME280;42589;45.536;9.032;2022-10-17T16:29:00;100922.13;;;27.89;42.76
56713;BME280;42589;45.536;9.032;2022-10-17T16:32:02;100931.28;;;27.83;42.98
56713;BME280;42589;45.536;9.032;2022-10-17T16:35:04;100916.75;;;27.70;43.18
56713;BME280;42589;45.536;9.032;2022-10-17T16:38:06;100925.78;;;27.47;43.86
56713;BME280;42589;45.536;9.032;2022-10-17T16:41:28;100920.94;;;27.38;44.02
56713;BME280;42589;45.536;9.032;2022-10-17T16:44:27;100923.63;;;27.26;44.36
56713;BME280;42589;45.536;9.032;2022-10-17T16:47:27;100924.25;;;27.28;44.10
56713;BME280;42589;45.536;9.032;2022-10-17T16:50:28;100925.19;;;27.22;44.14
56713;BME280;42589;45.536;9.032;2022-10-17T16:53:30;100934.31;;;27.16;44.71
56713;BME280;42589;45.536;9.032;2022-10-17T16:56:30;100930.91;;;27.02;44.75
56713;BME280;42589;45.536;9.032;2022-10-17T16:59:31;100931.63;;;26.97;45.26
56713;BME280;42589;45.536;9.032;2022-10-17T17:02:32;100935.06;;;26.93;45.07
56713;BME280;42589;45.536;9.032;2022-10-17T17:05:33;100927.34;;;26.90;45.24
56713;BME280;42589;45.536;9.032;2022-10-17T17:08:36;100926.59;;;26.82;45.74
56713;BME280;42589;45.536;9.032;2022-10-17T17:11:40;100928.91;;;26.67;45.93
56713;BME280;42589;45.536;9.032;2022-10-17T17:14:41;100936.03;;;26.68;45.92
56713;BME280;42589;45.536;9.032;2022-10-17T17:17:41;100939.59;;;26.69;46.08
56713;BME280;42589;45.536;9.032;2022-10-17T17:20:42;100940.38;;;26.57;46.28
56713;BME280;42589;45.536;9.032;2022-10-17T17:23:43;100942.25;;;26.57;46.26
56713;BME280;42589;45.536;9.032;2022-10-17T17:26:44;100937.88;;;26.56;46.47
56713;BME280;42589;45.536;9.032;2022-10-17T17:29:45;100935.16;;;26.56;46.12
56713;BME280;42589;45.536;9.032;2022-10-17T17:32:46;100941.13;;;26.46;46.72
56713;BME280;42589;45.536;9.032;2022-10-17T17:35:47;100943.25;;;26.44;46.83
56713;BME280;42589;45.536;9.032;2022-10-17T17:38:47;100936.13;;;26.43;46.73